createdAt,value
2023-05-02T00:02:15.961Z,41.83
2023-05-02T00:05:11.075Z,41.80
2023-05-02T00:08:05.205Z,41.81
2023-05-02T00:10:58.959Z,41.71
2023-05-02T00:13:52.900Z,41.68
2023-05-02T00:16:46.734Z,41.70
2023-05-02T00:19:43.797Z,41.86
2023-05-02T00:22:37.838Z,41.86
2023-05-02T00:25:31.960Z,41.88
2023-05-02T00:28:26.523Z,41.81
2023-05-02T00:31:20.393Z,41.85
2023-05-02T00:34:14.641Z,41.83
2023-05-02T00:37:08.538Z,41.95
2023-05-02T00:40:03.007Z,42.01
2023-05-02T00:42:57.850Z,41.97
2023-05-02T00:45:52.534Z,41.93
2023-05-02T00:48:46.736Z,41.93
2023-05-02T00:51:41.015Z,42.02
2023-05-02T00:54:35.339Z,42.06
2023-05-02T00:57:29.498Z,42.06
2023-05-02T01:00:28.571Z,42.21
2023-05-02T01:03:38.169Z,42.32
2023-05-02T01:06:49.582Z,42.24
2023-05-02T01:10:02.466Z,42.17
2023-05-02T01:13:04.466Z,42.19
2023-05-02T01:16:01.884Z,42.30
2023-05-02T01:18:57.101Z,42.17
2023-05-02T01:21:53.243Z,42.33
2023-05-02T01:24:55.934Z,42.27
2023-05-02T01:28:06.573Z,42.41
2023-05-02T01:31:02.705Z,42.45
2023-05-02T01:33:57.824Z,42.45
2023-05-02T01:36:53.513Z,42.47
2023-05-02T01:39:47.944Z,42.44
2023-05-02T01:42:43.690Z,42.64
2023-05-02T01:45:39.316Z,42.46
2023-05-02T01:48:33.810Z,42.58
2023-05-02T01:51:31.892Z,42.55
2023-05-02T01:54:27.911Z,42.71
2023-05-02T01:57:22.111Z,42.75
2023-05-02T02:00:19.712Z,42.71
2023-05-02T02:03:14.391Z,42.73
2023-05-02T02:06:10.016Z,42.73
2023-05-02T02:09:04.805Z,42.80
2023-05-02T02:12:12.483Z,42.79
2023-05-02T02:15:14.768Z,42.78
2023-05-02T02:18:14.726Z,42.79
2023-05-02T02:21:12.732Z,42.71
2023-05-02T02:24:08.642Z,42.80
2023-05-02T02:27:02.576Z,42.69
2023-05-02T02:29:56.853Z,42.80
2023-05-02T02:32:51.059Z,42.84
2023-05-02T02:35:53.999Z,42.86
2023-05-02T02:39:03.837Z,42.92
2023-05-02T02:42:11.063Z,42.89
2023-05-02T02:45:16.888Z,43.01
2023-05-02T02:48:21.002Z,42.98
2023-05-02T02:51:25.419Z,42.89
2023-05-02T02:54:30.569Z,42.98
2023-05-02T02:57:32.769Z,42.98
2023-05-02T03:00:29.171Z,43.05
2023-05-02T03:03:29.169Z,43.05
2023-05-02T03:06:23.466Z,43.05
2023-05-02T03:09:20.940Z,43.14
2023-05-02T03:12:14.723Z,43.14
2023-05-02T03:15:24.426Z,43.14
2023-05-02T03:18:18.468Z,43.14
2023-05-02T03:21:12.649Z,43.23
2023-05-02T03:24:08.124Z,43.20
2023-05-02T03:27:02.989Z,43.21
2023-05-02T03:29:56.948Z,43.21
2023-05-02T03:32:51.192Z,43.09
2023-05-02T03:35:45.039Z,43.23
2023-05-02T03:38:38.840Z,43.22
2023-05-02T03:41:32.444Z,43.31
2023-05-02T03:44:26.511Z,43.34
2023-05-02T03:47:20.506Z,43.26
2023-05-02T03:50:15.033Z,43.38
2023-05-02T03:53:10.076Z,43.45
2023-05-02T03:56:04.073Z,43.58
2023-05-02T03:58:57.958Z,43.64
2023-05-02T04:01:54.354Z,43.46
2023-05-02T04:04:48.357Z,43.27
2023-05-02T04:07:42.177Z,43.43
2023-05-02T04:10:36.056Z,43.40
2023-05-02T04:13:30.210Z,43.39
2023-05-02T04:16:23.894Z,43.29
2023-05-02T04:19:18.436Z,43.35
2023-05-02T04:22:12.685Z,43.29
2023-05-02T04:25:07.561Z,43.19
2023-05-02T04:28:01.415Z,43.48
2023-05-02T04:30:55.865Z,43.50
2023-05-02T04:33:49.939Z,43.60
2023-05-02T04:36:46.064Z,43.53
2023-05-02T04:39:40.008Z,43.78
2023-05-02T04:42:34.260Z,43.88
2023-05-02T04:45:28.137Z,43.87
2023-05-02T04:48:22.007Z,43.73
2023-05-02T04:51:17.147Z,43.51
2023-05-02T04:54:11.487Z,43.58
2023-05-02T04:57:07.943Z,43.66
2023-05-02T05:00:02.389Z,43.62
2023-05-02T05:02:57.060Z,43.43
2023-05-02T05:05:52.259Z,42.89
2023-05-02T05:08:46.576Z,43.23
2023-05-02T05:11:41.868Z,43.59
2023-05-02T05:14:35.635Z,42.72
2023-05-02T05:17:29.474Z,43.38
2023-05-02T05:20:23.715Z,43.46
2023-05-02T05:23:17.543Z,43.59
2023-05-02T05:26:18.187Z,43.68
2023-05-02T05:29:11.900Z,43.53
2023-05-02T05:32:07.114Z,43.50
2023-05-02T05:35:01.068Z,43.12
2023-05-02T05:37:55.018Z,42.77
2023-05-02T05:40:52.179Z,42.77
2023-05-02T05:43:45.990Z,42.48
2023-05-02T05:46:39.977Z,42.26
2023-05-02T05:49:38.427Z,42.36
2023-05-02T05:52:32.588Z,42.57
2023-05-02T05:55:28.387Z,42.79
2023-05-02T05:58:22.148Z,42.84
2023-05-02T06:01:16.055Z,42.40
2023-05-02T06:04:10.396Z,42.31
2023-05-02T06:07:04.500Z,42.28
2023-05-02T06:09:58.525Z,42.03
2023-05-02T06:12:52.530Z,42.16
2023-05-02T06:15:46.577Z,42.34
2023-05-02T06:18:40.408Z,43.00
2023-05-02T06:21:34.013Z,41.92
2023-05-02T06:24:28.002Z,41.77
2023-05-02T06:27:22.016Z,42.12
2023-05-02T06:30:16.768Z,41.77
2023-05-02T06:33:12.382Z,41.71
2023-05-02T06:36:06.584Z,41.51
2023-05-02T06:39:00.356Z,41.95
2023-05-02T06:42:04.533Z,41.95
2023-05-02T06:44:58.600Z,42.09
2023-05-02T06:47:52.647Z,43.15
2023-05-02T06:50:47.072Z,42.73
2023-05-02T06:53:41.624Z,42.47
2023-05-02T06:56:35.469Z,42.38
2023-05-02T06:59:29.601Z,42.57
2023-05-02T07:02:23.460Z,42.51
2023-05-02T07:05:17.618Z,42.04
2023-05-02T07:08:11.669Z,41.87
2023-05-02T07:11:05.430Z,41.91
2023-05-02T07:13:59.315Z,41.77
2023-05-02T07:16:53.238Z,41.70
2023-05-02T07:19:47.096Z,42.09
2023-05-02T07:22:41.029Z,42.16
2023-05-02T07:25:35.018Z,42.10
2023-05-02T07:28:28.948Z,42.76
2023-05-02T07:31:22.824Z,42.41
2023-05-02T07:34:16.786Z,42.61
2023-05-02T07:37:11.737Z,42.92
2023-05-02T07:40:07.945Z,43.33
2023-05-02T07:43:03.582Z,42.59
2023-05-02T07:45:57.428Z,42.47
2023-05-02T07:48:54.049Z,42.40
2023-05-02T07:51:48.149Z,42.70
2023-05-02T07:54:42.424Z,42.28
2023-05-02T07:57:36.358Z,42.68
2023-05-02T08:00:30.472Z,42.33
2023-05-02T08:03:24.512Z,42.12
2023-05-02T08:06:18.384Z,42.34
2023-05-02T08:09:12.673Z,42.50
2023-05-02T08:12:06.576Z,42.49
2023-05-02T08:15:00.373Z,42.71
2023-05-02T08:17:54.130Z,42.80
2023-05-02T08:20:50.770Z,42.75
2023-05-02T08:23:46.255Z,42.96
2023-05-02T08:26:39.998Z,42.66
2023-05-02T08:29:34.302Z,42.88
2023-05-02T08:32:29.249Z,42.54
2023-05-02T08:35:23.452Z,42.55
2023-05-02T08:38:17.187Z,42.72
2023-05-02T08:41:17.981Z,43.24
2023-05-02T08:44:13.136Z,42.75
2023-05-02T08:47:28.255Z,42.93
2023-05-02T08:50:22.689Z,42.70
2023-05-02T08:53:18.765Z,43.02
2023-05-02T08:56:14.090Z,43.12
2023-05-02T08:59:09.287Z,43.00
2023-05-02T09:02:13.737Z,42.71
2023-05-02T09:05:12.742Z,42.41
2023-05-02T09:08:06.640Z,42.62
2023-05-02T09:11:00.704Z,42.65
2023-05-02T09:13:56.045Z,42.45
2023-05-02T09:16:51.265Z,42.48
2023-05-02T09:19:45.181Z,42.68
2023-05-02T09:22:39.506Z,42.57
2023-05-02T09:25:42.293Z,42.65
2023-05-02T09:28:47.202Z,42.47
2023-05-02T09:34:39.316Z,42.69
2023-05-02T09:37:42.163Z,43.89
2023-05-02T09:40:36.657Z,43.01
2023-05-02T09:43:30.599Z,43.05
2023-05-02T09:46:24.346Z,43.70
2023-05-02T09:49:20.074Z,43.70
2023-05-02T09:52:18.458Z,43.19
2023-05-02T09:55:24.371Z,43.00
2023-05-02T09:58:26.720Z,43.40
2023-05-02T10:01:21.618Z,43.92
2023-05-02T10:04:19.018Z,43.59
2023-05-02T10:07:14.032Z,43.87
2023-05-02T10:10:12.372Z,43.70
2023-05-02T10:13:08.895Z,44.03
2023-05-02T10:16:06.214Z,44.64
2023-05-02T10:19:24.688Z,44.59
2023-05-02T10:22:20.079Z,44.58
2023-05-02T10:25:14.957Z,44.24
2023-05-02T10:28:12.773Z,44.15
2023-05-02T10:31:10.787Z,44.55
2023-05-02T10:34:06.186Z,44.13
2023-05-02T10:37:02.313Z,44.30
2023-05-02T10:39:56.356Z,45.32
2023-05-02T10:42:53.058Z,44.99
2023-05-02T10:45:47.438Z,44.49
2023-05-02T10:48:41.590Z,45.95
2023-05-02T10:51:36.688Z,46.51
2023-05-02T10:54:30.680Z,45.89
2023-05-02T10:57:24.553Z,46.12
2023-05-02T11:00:29.562Z,45.99
2023-05-02T11:03:57.436Z,46.62
2023-05-02T11:07:21.137Z,45.53
2023-05-02T11:10:31.418Z,47.19
2023-05-02T11:13:45.964Z,48.23
2023-05-02T11:17:16.653Z,49.08
2023-05-02T11:20:33.280Z,49.40
2023-05-02T11:23:26.967Z,48.35
2023-05-02T11:26:27.600Z,49.34
2023-05-02T11:32:23.977Z,49.44
2023-05-02T11:35:41.377Z,50.04
2023-05-02T11:38:41.048Z,48.76
2023-05-02T11:41:46.727Z,48.32
2023-05-02T11:44:59.341Z,47.74
2023-05-02T11:47:54.483Z,47.49
2023-05-02T11:50:50.910Z,49.21
2023-05-02T11:53:45.682Z,48.37
2023-05-02T11:56:39.305Z,49.13
2023-05-02T11:59:53.864Z,49.34
2023-05-02T12:02:48.992Z,48.97
2023-05-02T12:05:42.830Z,48.27
2023-05-02T12:08:36.595Z,49.12
2023-05-02T12:11:31.223Z,49.99
2023-05-02T12:14:35.610Z,48.58
2023-05-02T12:17:29.619Z,48.44
2023-05-02T12:20:23.454Z,48.74
2023-05-02T12:23:17.245Z,48.83
2023-05-02T12:26:25.248Z,48.86
2023-05-02T12:29:06.582Z,48.64
2023-05-02T12:32:00.630Z,49.34
2023-05-02T12:34:54.409Z,50.92
2023-05-02T12:37:48.569Z,49.06
2023-05-02T12:40:48.973Z,49.31
2023-05-02T12:43:52.867Z,50.11
2023-05-02T12:47:03.371Z,48.65
2023-05-02T12:49:59.328Z,48.76
2023-05-02T12:52:59.932Z,49.81
2023-05-02T12:56:06.978Z,48.87
2023-05-02T12:59:04.987Z,48.79
2023-05-02T13:01:58.755Z,48.70
2023-05-02T13:04:52.831Z,49.40
2023-05-02T13:07:46.833Z,48.69
2023-05-02T13:10:40.765Z,48.91
2023-05-02T13:13:35.611Z,49.43
2023-05-02T13:16:30.424Z,49.75
2023-05-02T13:19:10.120Z,51.75
2023-05-02T13:22:03.795Z,51.17
2023-05-02T13:24:57.599Z,50.95
2023-05-02T13:27:51.532Z,50.49
2023-05-02T13:30:45.553Z,51.46
2023-05-02T13:33:39.482Z,51.67
2023-05-02T13:36:33.464Z,50.71
2023-05-02T13:39:27.449Z,51.15
2023-05-02T13:42:22.979Z,51.35
2023-05-02T13:45:17.917Z,51.50
2023-05-02T13:48:12.166Z,51.76
2023-05-02T13:51:06.415Z,50.89
2023-05-02T13:54:00.426Z,50.99
2023-05-02T13:56:54.046Z,50.43
2023-05-02T13:59:47.720Z,50.00
2023-05-02T14:02:41.839Z,50.16
2023-05-02T14:05:36.569Z,49.96
2023-05-02T14:08:30.385Z,50.17
2023-05-02T14:11:24.560Z,49.29
2023-05-02T14:14:18.541Z,49.43
2023-05-02T14:17:12.331Z,48.47
2023-05-02T14:20:07.538Z,48.45
2023-05-02T14:23:01.444Z,47.91
2023-05-02T14:25:55.205Z,47.72
2023-05-02T14:28:48.970Z,47.19
2023-05-02T14:31:42.689Z,46.07
2023-05-02T14:34:36.344Z,46.23
2023-05-02T14:37:31.134Z,45.78
2023-05-02T14:40:25.249Z,46.26
2023-05-02T14:43:18.923Z,45.82
2023-05-02T14:46:13.021Z,46.16
2023-05-02T14:49:06.802Z,46.03
2023-05-02T14:52:00.482Z,45.80
2023-05-02T14:54:54.610Z,45.68
2023-05-02T14:57:48.406Z,45.67
2023-05-02T15:00:43.096Z,45.96
2023-05-02T15:03:49.150Z,45.73
2023-05-02T15:06:53.829Z,45.83
2023-05-02T15:09:47.577Z,45.53
2023-05-02T15:12:41.407Z,45.06
2023-05-02T15:15:24.865Z,45.83
2023-05-02T15:18:18.638Z,46.44
2023-05-02T15:21:12.401Z,46.43
2023-05-02T15:24:06.564Z,45.66
2023-05-02T15:27:00.427Z,45.19
2023-05-02T15:29:54.653Z,45.87
2023-05-02T15:32:48.413Z,45.63
2023-05-02T15:35:44.334Z,45.70
2023-05-02T15:38:39.567Z,46.38
2023-05-02T15:41:33.574Z,46.89
2023-05-02T15:44:27.234Z,46.72
2023-05-02T15:47:22.375Z,46.67
2023-05-02T15:50:16.766Z,46.60
2023-05-02T15:53:10.448Z,46.85
2023-05-02T15:56:04.727Z,46.65
2023-05-02T15:58:58.420Z,47.34
2023-05-02T16:01:52.429Z,47.03
2023-05-02T16:04:46.557Z,47.33
2023-05-02T16:07:40.626Z,46.80
2023-05-02T16:10:36.511Z,46.67
2023-05-02T16:13:30.509Z,46.62
2023-05-02T16:16:24.294Z,46.85
2023-05-02T16:19:18.626Z,47.61
2023-05-02T16:22:12.331Z,48.52
2023-05-02T16:25:07.130Z,48.78
2023-05-02T16:28:01.033Z,49.29
2023-05-02T16:30:54.770Z,50.05
2023-05-02T16:33:49.237Z,50.47
2023-05-02T16:36:43.204Z,50.28
2023-05-02T16:39:37.956Z,49.99
2023-05-02T16:42:31.772Z,49.66
2023-05-02T16:45:25.884Z,49.54
2023-05-02T16:48:19.757Z,49.24
2023-05-02T16:51:13.592Z,49.11
2023-05-02T16:54:07.817Z,49.39
2023-05-02T16:57:03.154Z,49.26
2023-05-02T16:59:56.797Z,49.11
2023-05-02T17:02:52.132Z,48.96
2023-05-02T17:05:45.976Z,48.57
2023-05-02T17:08:39.980Z,48.43
2023-05-02T17:11:34.188Z,48.56
2023-05-02T17:14:27.888Z,48.64
2023-05-02T17:17:23.409Z,48.46
2023-05-02T17:20:17.759Z,48.63
2023-05-02T17:23:11.708Z,48.16
2023-05-02T17:26:08.414Z,48.83
2023-05-02T17:29:02.265Z,49.91
2023-05-02T17:31:56.855Z,50.31
2023-05-02T17:34:50.858Z,50.22
2023-05-02T17:37:44.563Z,49.18
2023-05-02T17:40:38.503Z,49.40
2023-05-02T17:43:32.415Z,49.73
2023-05-02T17:46:26.052Z,50.97
2023-05-02T17:49:19.954Z,50.22
2023-05-02T17:52:14.011Z,49.67
2023-05-02T17:55:11.115Z,49.57
2023-05-02T17:58:04.840Z,49.72
2023-05-02T18:00:59.081Z,49.62
2023-05-02T18:03:53.084Z,50.15
2023-05-02T18:06:46.981Z,49.71
2023-05-02T18:09:41.096Z,49.13
2023-05-02T18:12:34.798Z,49.12
2023-05-02T18:15:29.294Z,49.05
2023-05-02T18:18:23.090Z,48.78
2023-05-02T18:21:25.854Z,48.80
2023-05-02T18:24:19.509Z,48.91
2023-05-02T18:27:13.940Z,49.34
2023-05-02T18:30:12.684Z,49.59
2023-05-02T18:33:09.306Z,49.71
2023-05-02T18:36:04.005Z,49.72
2023-05-02T18:38:58.520Z,49.51
2023-05-02T18:41:52.649Z,49.88
2023-05-02T18:44:46.627Z,49.87
2023-05-02T18:47:40.368Z,50.64
2023-05-02T18:50:34.336Z,51.66
2023-05-02T18:53:28.462Z,51.33
2023-05-02T18:56:22.333Z,49.86
2023-05-02T18:59:16.346Z,50.22
2023-05-02T19:02:10.170Z,51.37
2023-05-02T19:05:07.934Z,51.97
2023-05-02T19:08:00.017Z,52.05
2023-05-02T19:10:53.579Z,52.14
2023-05-02T19:13:48.212Z,52.43
2023-05-02T19:16:42.202Z,52.37
2023-05-02T19:19:36.287Z,51.77
2023-05-02T19:22:31.625Z,52.30
2023-05-02T19:25:26.068Z,51.71
2023-05-02T19:28:19.767Z,52.17
2023-05-02T19:31:15.163Z,52.53
2023-05-02T19:34:09.280Z,52.83
2023-05-02T19:37:04.069Z,52.91
2023-05-02T19:39:59.274Z,52.07
2023-05-02T19:42:52.918Z,53.01
2023-05-02T19:45:46.976Z,52.19
2023-05-02T19:48:40.610Z,52.56
2023-05-02T19:51:35.313Z,52.56
2023-05-02T19:54:29.217Z,52.78
2023-05-02T19:57:22.815Z,52.39
2023-05-02T20:00:20.922Z,52.13
2023-05-02T20:03:15.436Z,52.95
2023-05-02T20:06:12.632Z,53.21
2023-05-02T20:09:06.485Z,52.96
2023-05-02T20:12:00.269Z,52.46
2023-05-02T20:14:54.858Z,52.35
2023-05-02T20:17:49.259Z,52.30
2023-05-02T20:20:43.230Z,52.26
2023-05-02T20:23:37.119Z,52.11
2023-05-02T20:26:33.690Z,51.87
2023-05-02T20:29:27.596Z,51.85
2023-05-02T20:32:21.597Z,52.13
2023-05-02T20:35:16.193Z,51.65
2023-05-02T20:38:10.131Z,51.55
2023-05-02T20:41:07.716Z,51.61
2023-05-02T20:44:02.715Z,55.24
2023-05-02T20:46:56.701Z,52.75
2023-05-02T20:49:50.451Z,52.52
2023-05-02T20:52:44.620Z,51.73
2023-05-02T20:55:38.255Z,51.77
2023-05-02T20:58:32.178Z,52.40
2023-05-02T21:01:26.186Z,52.30
2023-05-02T21:04:19.909Z,52.16
2023-05-02T21:07:13.763Z,52.16
2023-05-02T21:10:10.170Z,51.96
2023-05-02T21:13:04.106Z,51.97
2023-05-02T21:15:57.795Z,52.40
2023-05-02T21:18:51.652Z,52.64
2023-05-02T21:21:45.483Z,52.72
2023-05-02T21:24:39.223Z,53.18
2023-05-02T21:27:33.422Z,53.02
2023-05-02T21:30:27.368Z,52.62
2023-05-02T21:33:21.209Z,53.22
2023-05-02T21:36:15.516Z,53.15
2023-05-02T21:39:09.769Z,53.31
2023-05-02T21:42:03.616Z,52.93
2023-05-02T21:44:58.350Z,52.93
2023-05-02T21:47:52.763Z,52.83
2023-05-02T21:50:47.295Z,52.96
2023-05-02T21:53:41.223Z,53.09
2023-05-02T21:56:35.104Z,52.94
2023-05-02T21:59:29.065Z,52.99
2023-05-02T22:02:23.991Z,53.36
2023-05-02T22:05:18.172Z,53.64
2023-05-02T22:08:13.553Z,53.13
2023-05-02T22:11:11.352Z,53.63
2023-05-02T22:14:03.428Z,53.48
2023-05-02T22:16:58.439Z,53.61
2023-05-02T22:19:54.284Z,53.58
2023-05-02T22:22:47.901Z,53.56
2023-05-02T22:25:46.344Z,53.85
2023-05-02T22:28:40.490Z,53.68
2023-05-02T22:31:34.444Z,53.71
2023-05-02T22:34:28.338Z,53.68
2023-05-02T22:37:21.965Z,53.64
2023-05-02T22:40:17.263Z,53.49
2023-05-02T22:43:11.559Z,53.26
2023-05-02T22:46:05.399Z,53.30
2023-05-02T22:48:59.374Z,53.69
2023-05-02T22:51:58.043Z,53.81
2023-05-02T22:54:52.104Z,53.36
2023-05-02T22:57:45.716Z,53.57
2023-05-02T23:00:39.318Z,53.29
2023-05-02T23:03:33.011Z,53.34
2023-05-02T23:06:28.840Z,53.46
2023-05-02T23:09:12.557Z,54.21
2023-05-02T23:12:06.634Z,53.55
2023-05-02T23:15:00.718Z,53.69
2023-05-02T23:17:54.350Z,53.70
2023-05-02T23:20:47.947Z,53.74
2023-05-02T23:23:42.221Z,53.89
2023-05-02T23:26:36.042Z,53.87
2023-05-02T23:29:29.683Z,54.05
2023-05-02T23:32:23.923Z,53.91
2023-05-02T23:35:21.617Z,53.98
2023-05-02T23:38:15.795Z,54.42
2023-05-02T23:41:09.650Z,54.44
2023-05-02T23:44:03.386Z,54.34
2023-05-02T23:46:57.059Z,54.85
2023-05-02T23:49:50.846Z,54.12
2023-05-02T23:52:44.783Z,54.33
2023-05-02T23:55:38.851Z,54.44
2023-05-02T23:58:32.500Z,54.35
